Se — CSIG — position and weather

sailwx.info

Track history (hours):
 
Tides and Currents Weather Stations Pressure Air Temp Water Temp Dewpoint Dewpoint Depression Visibility Wind Speed Wind Dir Waves Ship Positions

Se

Last reported at 2018-Feb-22 20:24 UTC. Time now 2018-Feb-23 03:07 UTC.
Position N 38°39' W 009°06'.

Length 46 m; draft 24.8 m.

Type: Passenger vessel. MMSI: 263700018.

Date/timePositionNaut miles runAvg speedWind from/ knotsBaromVisibWave heightAir tempDewpointWater temp
2018-Feb-22 20:24N 38°39' W 009°06'410.3
2018-Feb-22 20:00N 38°42' W 009°09'4 8.0
2018-Feb-22 19:30N 38°39' W 009°06'4 8.2
2018-Feb-22 18:59N 38°42' W 009°09'4 8.0
2018-Feb-22 18:30N 38°39' W 009°06'2 4.0
2018-Feb-22 18:00N 38°41' W 009°08'2 3.7
2018-Feb-22 17:30N 38°42' W 009°09'4 6.8
2018-Feb-22 16:59N 38°39' W 009°06'2 3.5
2018-Feb-22 16:30N 38°41' W 009°07'1 1.8
2018-Feb-22 16:00N 38°40' W 009°07'2 0.3
2018-Feb-22 10:09N 38°41' W 009°09'1 7.7
2018-Feb-22 10:00N 38°42' W 009°09'3 5.1
2018-Feb-22 09:30N 38°40' W 009°07'1 2.7
2018-Feb-22 09:00N 38°39' W 009°06'4 7.3
2018-Feb-22 08:29N 38°42' W 009°09'2 5.1
2018-Feb-22 08:00N 38°40' W 009°07'1 1.9
2018-Feb-22 07:30N 38°40' W 009°06'3 6.6
2018-Feb-22 07:00N 38°42' W 009°09'4 8.1
2018-Feb-22 06:30N 38°39' W 009°06'0 0.1
2018-Feb-22 06:00N 38°39' W 009°06'0 0.0
2018-Feb-21 20:26N 38°39' W 009°06'4 9.8
2018-Feb-21 20:00N 38°42' W 009°09'4 8.1
2018-Feb-21 19:30N 38°39' W 009°06'4 7.8
2018-Feb-21 18:59N 38°42' W 009°09'4 7.6
2018-Feb-21 18:30N 38°39' W 009°06'2 3.3
2018-Feb-21 18:00N 38°41' W 009°07'2 4.0
2018-Feb-21 17:30N 38°42' W 009°09'4 7.6
2018-Feb-21 17:00N 38°39' W 009°06'2 3.2
2018-Feb-21 16:28N 38°40' W 009°07'1 1.9
2018-Feb-21 16:00N 38°40' W 009°07'2 0.4
2018-Feb-21 10:11N 38°41' W 009°09'1 6.6
2018-Feb-21 10:00N 38°42' W 009°09'2 4.6
2018-Feb-21 09:30N 38°40' W 009°08'2 3.3
2018-Feb-21 09:00N 38°39' W 009°06'4 7.6
2018-Feb-21 08:30N 38°42' W 009°09'2 4.4
2018-Feb-21 08:00N 38°40' W 009°07'1 2.7
2018-Feb-21 07:30N 38°39' W 009°06'3 6.8
2018-Feb-21 07:00N 38°42' W 009°09'4 8.4
2018-Feb-21 06:30N 38°39' W 009°06'0 0.1
2018-Feb-21 06:00N 38°39' W 009°06'0 0.0
2018-Feb-20 20:26N 38°39' W 009°06'4 9.3
2018-Feb-20 19:59N 38°42' W 009°09'4 8.2
2018-Feb-20 19:29N 38°39' W 009°06'4 8.3
2018-Feb-20 19:00N 38°42' W 009°09'3 6.6
2018-Feb-20 18:30N 38°40' W 009°06'1 2.2
2018-Feb-20 18:00N 38°40' W 009°07'2 4.5
2018-Feb-20 17:30N 38°42' W 009°09'4 7.4
2018-Feb-20 17:00N 38°39' W 009°06'2 4.4
2018-Feb-20 16:30N 38°41' W 009°08'0 0.9
2018-Feb-20 16:00N 38°41' W 009°08'3 6.1
2018-Feb-20 15:30N 38°39' W 009°06'0 0.0
2018-Feb-20 15:00N 38°39' W 009°06'4 8.3
2018-Feb-20 14:30N 38°42' W 009°09'4 8.2
2018-Feb-20 14:01N 38°39' W 009°06'0 0.0
2018-Feb-20 13:30N 38°39' W 009°06'4 7.4
2018-Feb-20 12:57N 38°42' W 009°09'4 9.3
2018-Feb-20 12:30N 38°39' W 009°06'1 0.8
2018-Feb-20 11:23N 38°40' W 009°06'2 2.8
2018-Feb-20 10:36N 38°41' W 009°08'2 6.8
2018-Feb-20 10:19N 38°40' W 009°07'1 3.3
2018-Feb-20 09:56N 38°41' W 009°08'0 0.5
2018-Feb-20 09:30N 38°41' W 009°08'2 3.1
2018-Feb-20 08:54N 38°39' W 009°06'3 7.5
2018-Feb-20 08:29N 38°42' W 009°08'1 3.1
2018-Feb-20 08:00N 38°40' W 009°08'2 3.8
2018-Feb-20 07:28N 38°39' W 009°06'4 8.5
2018-Feb-20 07:00N 38°42' W 009°09'4 8.4
2018-Feb-20 06:30N 38°39' W 009°06'0 0.0
2018-Feb-19 20:28N 38°39' W 009°06'4 8.7
2018-Feb-19 20:00N 38°42' W 009°09'4 8.3
2018-Feb-19 19:30N 38°39' W 009°06'4 8.3
2018-Feb-19 19:00N 38°42' W 009°09'3 6.2
2018-Feb-19 18:29N 38°40' W 009°06'1 2.6
2018-Feb-19 18:00N 38°40' W 009°07'2 4.3
2018-Feb-19 17:30N 38°42' W 009°09'3 6.3
2018-Feb-19 16:59N 38°40' W 009°06'1 3.0
2018-Feb-19 16:30N 38°41' W 009°08'2 3.0
2018-Feb-19 16:00N 38°42' W 009°09'4 7.4
2018-Feb-19 15:30N 38°39' W 009°06'0 0.0
2018-Feb-19 15:00N 38°39' W 009°06'4 8.3
2018-Feb-19 14:30N 38°42' W 009°09'4 8.0
2018-Feb-19 14:00N 38°39' W 009°06'0 0.0
2018-Feb-19 13:30N 38°39' W 009°06'4 8.0
2018-Feb-19 12:59N 38°42' W 009°09'4 8.2
2018-Feb-19 12:30N 38°39' W 009°06'0 0.0
2018-Feb-19 12:00N 38°39' W 009°06'4 7.7
2018-Feb-19 11:28N 38°42' W 009°09'4 8.6
2018-Feb-19 11:00N 38°39' W 009°06'0 0.0
2018-Feb-19 10:30N 38°39' W 009°06'4 8.2
2018-Feb-19 10:00N 38°42' W 009°09'2 4.6
2018-Feb-19 09:30N 38°40' W 009°08'2 3.6
2018-Feb-19 08:59N 38°39' W 009°06'4 8.5
2018-Feb-19 08:30N 38°42' W 009°09'2 4.5
2018-Feb-19 08:01N 38°40' W 009°08'1 2.9
2018-Feb-19 07:31N 38°39' W 009°06'4 7.0
2018-Feb-19 07:00N 38°42' W 009°09'4 8.3
2018-Feb-19 06:30N 38°39' W 009°06'0 0.1
2018-Feb-19 05:59N 38°39' W 009°06'  
2018-Feb-16 20:25N 38°39' W 009°06'0 0.0
2018-Feb-16 20:00N 38°39' W 009°06'4 8.4
2018-Feb-16 19:30N 38°42' W 009°09'4 8.1
2018-Feb-16 19:00N 38°39' W 009°06'3 5.4
2018-Feb-16 18:28N 38°41' W 009°08'1 1.1
2018-Feb-16 18:00N 38°42' W 009°08'3 7.0
2018-Feb-16 17:30N 38°39' W 009°06'4 8.0
2018-Feb-16 17:00N 38°42' W 009°09'1 0.7
2018-Feb-16 15:22N 38°41' W 009°09'0 0.0
2018-Feb-16 14:59N 38°41' W 009°09'0 0.0
2018-Feb-16 14:20N 38°41' W 009°09'0 0.0
2018-Feb-16 14:00N 38°41' W 009°09'0 0.0
2018-Feb-16 13:29N 38°41' W 009°09'0 0.0
2018-Feb-16 11:39N 38°41' W 009°09'1 6.6
2018-Feb-16 11:28N 38°42' W 009°09'4 8.2
2018-Feb-16 10:59N 38°39' W 009°06'0 0.0
2018-Feb-16 10:30N 38°39' W 009°06'4 8.3
2018-Feb-16 10:00N 38°42' W 009°09'4 8.2
2018-Feb-16 09:30N 38°39' W 009°06'4 7.5
2018-Feb-16 09:00N 38°42' W 009°09'3 5.3
2018-Feb-16 08:30N 38°40' W 009°06'1 1.0
2018-Feb-16 08:00N 38°40' W 009°07'2 3.2
2018-Feb-16 07:30N 38°41' W 009°08'3 5.8
2018-Feb-16 06:58N 38°39' W 009°06'4 8.8
2018-Feb-16 06:30N 38°42' W 009°09'612.3
2018-Feb-16 05:59N 38°42' W 009°00'0 0.0
2018-Feb-16 05:30N 38°42' W 009°00'0 0.0
2018-Feb-15 23:44N 38°42' W 009°00'311.1
2018-Feb-15 23:30N 38°41' W 009°04'4 8.4
2018-Feb-15 23:00N 38°42' W 009°09'612.9
2018-Feb-15 22:30N 38°42' W 009°00'612.8
2018-Feb-15 22:00N 38°42' W 009°09'612.8
2018-Feb-15 21:30N 38°42' W 009°00'613.0
2018-Feb-15 21:00N 38°42' W 009°09'613.1
2018-Feb-15 20:31N 38°42' W 009°00'610.8
2018-Feb-15 19:55N 38°42' W 009°09'616.0
2018-Feb-15 19:30N 38°42' W 009°00'612.8
2018-Feb-15 19:00N 38°42' W 009°09'612.9
2018-Feb-15 18:30N 38°42' W 009°00'612.6
2018-Feb-15 18:00N 38°42' W 009°09'613.2
2018-Feb-15 17:30N 38°42' W 009°00'612.9
2018-Feb-15 17:00N 38°42' W 009°09'613.0
2018-Feb-15 16:31N 38°42' W 009°00'0 0.0
2018-Feb-15 11:36N 38°42' W 009°00'113.7
2018-Feb-15 11:30N 38°41' W 009°02'5 9.1
2018-Feb-15 10:54N 38°41' W 009°09'0 0.0
2018-Feb-15 10:18N 38°41' W 009°09'0 0.0
2018-Feb-15 09:55N 38°41' W 009°09'1 3.0
2018-Feb-15 09:30N 38°42' W 009°09'612.7
2018-Feb-15 09:00N 38°42' W 009°00'613.3
2018-Feb-15 08:30N 38°42' W 009°09'612.8
2018-Feb-15 08:00N 38°42' W 009°00'612.5
2018-Feb-15 07:29N 38°42' W 009°09'613.4
2018-Feb-15 07:00N 38°42' W 009°00'613.0
2018-Feb-15 06:31N 38°42' W 009°09'612.7
2018-Feb-15 06:00N 38°42' W 009°00'0 0.0
2018-Feb-15 05:30N 38°42' W 009°00'0 0.0
2018-Feb-14 23:43N 38°42' W 009°00'312.3
2018-Feb-14 23:30N 38°41' W 009°04'4 8.2
2018-Feb-14 23:00N 38°42' W 009°09'612.7
2018-Feb-14 22:30N 38°42' W 009°00'613.1
2018-Feb-14 22:00N 38°42' W 009°09'612.6
2018-Feb-14 21:29N 38°42' W 009°00'613.3
2018-Feb-14 21:00N 38°42' W 009°09'612.9
2018-Feb-14 20:30N 38°42' W 009°00'612.3
2018-Feb-14 19:59N 38°42' W 009°09'613.6
2018-Feb-14 19:30N 38°42' W 009°00'612.9
2018-Feb-14 19:00N 38°42' W 009°09'613.0
2018-Feb-14 18:30N 38°42' W 009°00'612.6
2018-Feb-14 18:00N 38°42' W 009°09'613.3
2018-Feb-14 17:30N 38°42' W 009°00'612.9
2018-Feb-14 17:00N 38°42' W 009°09'612.9
2018-Feb-14 16:30N 38°42' W 009°00'611.6
2018-Feb-14 16:00N 38°41' W 009°08'1 0.2
2018-Feb-14 11:28N 38°41' W 009°09'1 2.5
2018-Feb-14 11:00N 38°42' W 009°09'712.8
2018-Feb-14 10:30N 38°42' W 009°00'612.9
2018-Feb-14 10:00N 38°42' W 009°09'613.1
2018-Feb-14 09:30N 38°42' W 009°00'613.0
2018-Feb-14 09:00N 38°42' W 009°09'612.8
2018-Feb-14 08:30N 38°42' W 009°00'612.9
2018-Feb-14 08:00N 38°42' W 009°09'613.1
2018-Feb-14 07:30N 38°42' W 009°00'0 0.1
2018-Feb-14 07:00N 38°42' W 009°00'0 0.0
2018-Feb-13 17:37N 38°42' W 009°00'0 0.4
2018-Feb-13 17:30N 38°42' W 009°00'7 0.9
2018-Feb-13 10:05N 38°41' W 009°09'118.1
2018-Feb-13 10:00N 38°40' W 009°07'2 4.5
2018-Feb-13 09:28N 38°42' W 009°09'4 8.7
2018-Feb-13 09:00N 38°39' W 009°06'4 8.2
2018-Feb-13 08:30N 38°42' W 009°09'4 8.3
2018-Feb-13 08:00N 38°39' W 009°06'4 8.2
2018-Feb-13 07:30N 38°42' W 009°09'1 2.2
2018-Feb-13 06:58N 38°41' W 009°09'  
Track history (hours):
 
Tides and Currents Weather Stations Pressure Air Temp Water Temp Dewpoint Dewpoint Depression Visibility Wind Speed Wind Dir Waves Ship Positions

Se

Last reported at 2018-Feb-22 20:24 UTC. Time now 2018-Feb-23 03:07 UTC.
Position N 38°39' W 009°06'.

Length 46 m; draft 24.8 m.

Type: Passenger vessel. MMSI: 263700018.

Date/timePositionNaut miles runAvg speedWind from/ knotsBaromVisibWave heightAir tempDewpointWater temp
2018-Feb-22 20:24N 38°39' W 009°06'410.3
2018-Feb-22 20:00N 38°42' W 009°09'4 8.0
2018-Feb-22 19:30N 38°39' W 009°06'4 8.2
2018-Feb-22 18:59N 38°42' W 009°09'4 8.0
2018-Feb-22 18:30N 38°39' W 009°06'2 4.0
2018-Feb-22 18:00N 38°41' W 009°08'2 3.7
2018-Feb-22 17:30N 38°42' W 009°09'4 6.8
2018-Feb-22 16:59N 38°39' W 009°06'2 3.5
2018-Feb-22 16:30N 38°41' W 009°07'1 1.8
2018-Feb-22 16:00N 38°40' W 009°07'2 0.3
2018-Feb-22 10:09N 38°41' W 009°09'1 7.7
2018-Feb-22 10:00N 38°42' W 009°09'3 5.1
2018-Feb-22 09:30N 38°40' W 009°07'1 2.7
2018-Feb-22 09:00N 38°39' W 009°06'4 7.3
2018-Feb-22 08:29N 38°42' W 009°09'2 5.1
2018-Feb-22 08:00N 38°40' W 009°07'1 1.9
2018-Feb-22 07:30N 38°40' W 009°06'3 6.6
2018-Feb-22 07:00N 38°42' W 009°09'4 8.1
2018-Feb-22 06:30N 38°39' W 009°06'0 0.1
2018-Feb-22 06:00N 38°39' W 009°06'0 0.0
2018-Feb-21 20:26N 38°39' W 009°06'4 9.8
2018-Feb-21 20:00N 38°42' W 009°09'4 8.1
2018-Feb-21 19:30N 38°39' W 009°06'4 7.8
2018-Feb-21 18:59N 38°42' W 009°09'4 7.6
2018-Feb-21 18:30N 38°39' W 009°06'2 3.3
2018-Feb-21 18:00N 38°41' W 009°07'2 4.0
2018-Feb-21 17:30N 38°42' W 009°09'4 7.6
2018-Feb-21 17:00N 38°39' W 009°06'2 3.2
2018-Feb-21 16:28N 38°40' W 009°07'1 1.9
2018-Feb-21 16:00N 38°40' W 009°07'2 0.4
2018-Feb-21 10:11N 38°41' W 009°09'1 6.6
2018-Feb-21 10:00N 38°42' W 009°09'2 4.6
2018-Feb-21 09:30N 38°40' W 009°08'2 3.3
2018-Feb-21 09:00N 38°39' W 009°06'4 7.6
2018-Feb-21 08:30N 38°42' W 009°09'2 4.4
2018-Feb-21 08:00N 38°40' W 009°07'1 2.7
2018-Feb-21 07:30N 38°39' W 009°06'3 6.8
2018-Feb-21 07:00N 38°42' W 009°09'4 8.4
2018-Feb-21 06:30N 38°39' W 009°06'0 0.1
2018-Feb-21 06:00N 38°39' W 009°06'0 0.0
2018-Feb-20 20:26N 38°39' W 009°06'4 9.3
2018-Feb-20 19:59N 38°42' W 009°09'4 8.2
2018-Feb-20 19:29N 38°39' W 009°06'4 8.3
2018-Feb-20 19:00N 38°42' W 009°09'3 6.6
2018-Feb-20 18:30N 38°40' W 009°06'1 2.2
2018-Feb-20 18:00N 38°40' W 009°07'2 4.5
2018-Feb-20 17:30N 38°42' W 009°09'4 7.4
2018-Feb-20 17:00N 38°39' W 009°06'2 4.4
2018-Feb-20 16:30N 38°41' W 009°08'0 0.9
2018-Feb-20 16:00N 38°41' W 009°08'3 6.1
2018-Feb-20 15:30N 38°39' W 009°06'0 0.0
2018-Feb-20 15:00N 38°39' W 009°06'4 8.3
2018-Feb-20 14:30N 38°42' W 009°09'4 8.2
2018-Feb-20 14:01N 38°39' W 009°06'0 0.0
2018-Feb-20 13:30N 38°39' W 009°06'4 7.4
2018-Feb-20 12:57N 38°42' W 009°09'4 9.3
2018-Feb-20 12:30N 38°39' W 009°06'1 0.8
2018-Feb-20 11:23N 38°40' W 009°06'2 2.8
2018-Feb-20 10:36N 38°41' W 009°08'2 6.8
2018-Feb-20 10:19N 38°40' W 009°07'1 3.3
2018-Feb-20 09:56N 38°41' W 009°08'0 0.5
2018-Feb-20 09:30N 38°41' W 009°08'2 3.1
2018-Feb-20 08:54N 38°39' W 009°06'3 7.5
2018-Feb-20 08:29N 38°42' W 009°08'1 3.1
2018-Feb-20 08:00N 38°40' W 009°08'2 3.8
2018-Feb-20 07:28N 38°39' W 009°06'4 8.5
2018-Feb-20 07:00N 38°42' W 009°09'4 8.4
2018-Feb-20 06:30N 38°39' W 009°06'0 0.0
2018-Feb-19 20:28N 38°39' W 009°06'4 8.7
2018-Feb-19 20:00N 38°42' W 009°09'4 8.3
2018-Feb-19 19:30N 38°39' W 009°06'4 8.3
2018-Feb-19 19:00N 38°42' W 009°09'3 6.2
2018-Feb-19 18:29N 38°40' W 009°06'1 2.6
2018-Feb-19 18:00N 38°40' W 009°07'2 4.3
2018-Feb-19 17:30N 38°42' W 009°09'3 6.3
2018-Feb-19 16:59N 38°40' W 009°06'1 3.0
2018-Feb-19 16:30N 38°41' W 009°08'2 3.0
2018-Feb-19 16:00N 38°42' W 009°09'4 7.4
2018-Feb-19 15:30N 38°39' W 009°06'0 0.0
2018-Feb-19 15:00N 38°39' W 009°06'4 8.3
2018-Feb-19 14:30N 38°42' W 009°09'4 8.0
2018-Feb-19 14:00N 38°39' W 009°06'0 0.0
2018-Feb-19 13:30N 38°39' W 009°06'4 8.0
2018-Feb-19 12:59N 38°42' W 009°09'4 8.2
2018-Feb-19 12:30N 38°39' W 009°06'0 0.0
2018-Feb-19 12:00N 38°39' W 009°06'4 7.7
2018-Feb-19 11:28N 38°42' W 009°09'4 8.6
2018-Feb-19 11:00N 38°39' W 009°06'0 0.0
2018-Feb-19 10:30N 38°39' W 009°06'4 8.2
2018-Feb-19 10:00N 38°42' W 009°09'2 4.6
2018-Feb-19 09:30N 38°40' W 009°08'2 3.6
2018-Feb-19 08:59N 38°39' W 009°06'4 8.5
2018-Feb-19 08:30N 38°42' W 009°09'2 4.5
2018-Feb-19 08:01N 38°40' W 009°08'1 2.9
2018-Feb-19 07:31N 38°39' W 009°06'4 7.0
2018-Feb-19 07:00N 38°42' W 009°09'4 8.3
2018-Feb-19 06:30N 38°39' W 009°06'0 0.1
2018-Feb-19 05:59N 38°39' W 009°06'  
2018-Feb-16 20:25N 38°39' W 009°06'0 0.0
2018-Feb-16 20:00N 38°39' W 009°06'4 8.4
2018-Feb-16 19:30N 38°42' W 009°09'4 8.1
2018-Feb-16 19:00N 38°39' W 009°06'3 5.4
2018-Feb-16 18:28N 38°41' W 009°08'1 1.1
2018-Feb-16 18:00N 38°42' W 009°08'3 7.0
2018-Feb-16 17:30N 38°39' W 009°06'4 8.0
2018-Feb-16 17:00N 38°42' W 009°09'1 0.7
2018-Feb-16 15:22N 38°41' W 009°09'0 0.0
2018-Feb-16 14:59N 38°41' W 009°09'0 0.0
2018-Feb-16 14:20N 38°41' W 009°09'0 0.0
2018-Feb-16 14:00N 38°41' W 009°09'0 0.0
2018-Feb-16 13:29N 38°41' W 009°09'0 0.0
2018-Feb-16 11:39N 38°41' W 009°09'1 6.6
2018-Feb-16 11:28N 38°42' W 009°09'4 8.2
2018-Feb-16 10:59N 38°39' W 009°06'0 0.0
2018-Feb-16 10:30N 38°39' W 009°06'4 8.3
2018-Feb-16 10:00N 38°42' W 009°09'4 8.2
2018-Feb-16 09:30N 38°39' W 009°06'4 7.5
2018-Feb-16 09:00N 38°42' W 009°09'3 5.3
2018-Feb-16 08:30N 38°40' W 009°06'1 1.0
2018-Feb-16 08:00N 38°40' W 009°07'2 3.2
2018-Feb-16 07:30N 38°41' W 009°08'3 5.8
2018-Feb-16 06:58N 38°39' W 009°06'4 8.8
2018-Feb-16 06:30N 38°42' W 009°09'612.3
2018-Feb-16 05:59N 38°42' W 009°00'0 0.0
2018-Feb-16 05:30N 38°42' W 009°00'0 0.0
2018-Feb-15 23:44N 38°42' W 009°00'311.1
2018-Feb-15 23:30N 38°41' W 009°04'4 8.4
2018-Feb-15 23:00N 38°42' W 009°09'612.9
2018-Feb-15 22:30N 38°42' W 009°00'612.8
2018-Feb-15 22:00N 38°42' W 009°09'612.8
2018-Feb-15 21:30N 38°42' W 009°00'613.0
2018-Feb-15 21:00N 38°42' W 009°09'613.1
2018-Feb-15 20:31N 38°42' W 009°00'610.8
2018-Feb-15 19:55N 38°42' W 009°09'616.0
2018-Feb-15 19:30N 38°42' W 009°00'612.8
2018-Feb-15 19:00N 38°42' W 009°09'612.9
2018-Feb-15 18:30N 38°42' W 009°00'612.6
2018-Feb-15 18:00N 38°42' W 009°09'613.2
2018-Feb-15 17:30N 38°42' W 009°00'612.9
2018-Feb-15 17:00N 38°42' W 009°09'613.0
2018-Feb-15 16:31N 38°42' W 009°00'0 0.0
2018-Feb-15 11:36N 38°42' W 009°00'113.7
2018-Feb-15 11:30N 38°41' W 009°02'5 9.1
2018-Feb-15 10:54N 38°41' W 009°09'0 0.0
2018-Feb-15 10:18N 38°41' W 009°09'0 0.0
2018-Feb-15 09:55N 38°41' W 009°09'1 3.0
2018-Feb-15 09:30N 38°42' W 009°09'612.7
2018-Feb-15 09:00N 38°42' W 009°00'613.3
2018-Feb-15 08:30N 38°42' W 009°09'612.8
2018-Feb-15 08:00N 38°42' W 009°00'612.5
2018-Feb-15 07:29N 38°42' W 009°09'613.4
2018-Feb-15 07:00N 38°42' W 009°00'613.0
2018-Feb-15 06:31N 38°42' W 009°09'612.7
2018-Feb-15 06:00N 38°42' W 009°00'0 0.0
2018-Feb-15 05:30N 38°42' W 009°00'0 0.0
2018-Feb-14 23:43N 38°42' W 009°00'312.3
2018-Feb-14 23:30N 38°41' W 009°04'4 8.2
2018-Feb-14 23:00N 38°42' W 009°09'612.7
2018-Feb-14 22:30N 38°42' W 009°00'613.1
2018-Feb-14 22:00N 38°42' W 009°09'612.6
2018-Feb-14 21:29N 38°42' W 009°00'613.3
2018-Feb-14 21:00N 38°42' W 009°09'612.9
2018-Feb-14 20:30N 38°42' W 009°00'612.3
2018-Feb-14 19:59N 38°42' W 009°09'613.6
2018-Feb-14 19:30N 38°42' W 009°00'612.9
2018-Feb-14 19:00N 38°42' W 009°09'613.0
2018-Feb-14 18:30N 38°42' W 009°00'612.6
2018-Feb-14 18:00N 38°42' W 009°09'613.3
2018-Feb-14 17:30N 38°42' W 009°00'612.9
2018-Feb-14 17:00N 38°42' W 009°09'612.9
2018-Feb-14 16:30N 38°42' W 009°00'611.6
2018-Feb-14 16:00N 38°41' W 009°08'1 0.2
2018-Feb-14 11:28N 38°41' W 009°09'1 2.5
2018-Feb-14 11:00N 38°42' W 009°09'712.8
2018-Feb-14 10:30N 38°42' W 009°00'612.9
2018-Feb-14 10:00N 38°42' W 009°09'613.1
2018-Feb-14 09:30N 38°42' W 009°00'613.0
2018-Feb-14 09:00N 38°42' W 009°09'612.8
2018-Feb-14 08:30N 38°42' W 009°00'612.9
2018-Feb-14 08:00N 38°42' W 009°09'613.1
2018-Feb-14 07:30N 38°42' W 009°00'0 0.1
2018-Feb-14 07:00N 38°42' W 009°00'0 0.0
2018-Feb-13 17:37N 38°42' W 009°00'0 0.4
2018-Feb-13 17:30N 38°42' W 009°00'7 0.9
2018-Feb-13 10:05N 38°41' W 009°09'118.1
2018-Feb-13 10:00N 38°40' W 009°07'2 4.5
2018-Feb-13 09:28N 38°42' W 009°09'4 8.7
2018-Feb-13 09:00N 38°39' W 009°06'4 8.2
2018-Feb-13 08:30N 38°42' W 009°09'4 8.3
2018-Feb-13 08:00N 38°39' W 009°06'4 8.2
2018-Feb-13 07:30N 38°42' W 009°09'1 2.2
2018-Feb-13 06:58N 38°41' W 009°09'  

Dump ship's entire track history